Dalton, GA (30719)

12:05 AM EDT on April 24, 2017 (GMT -0400)
Downtown Dalton, GA | | Change Station
Active Advisory: Flood Warning

Elev 753 ft 34.76 °N, 84.96 °W | Updated 9 seconds ago

Overcast
Overcast
57.1 °F
Feels Like 57.1 °F
N
3.0
Wind Variable Wind from SSW
Gusts 6.0 mph

Today
High -- | Low -- °F
--% Chance of Precip.
Yesterday
High -- | Low -- °F
Precip. -- in
Pressure 29.81 in
Visibility 10.0 miles
Clouds Mostly Cloudy 3800 ft
Overcast 5000 ft
Dew Point 54 °F
Humidity 89%
Rainfall 0.98 in
Snow Depth Not available.
6:56 AM 8:19 PM
Waning Crescent, 8% visible
METAR KDNN 240355Z AUTO 00000KT 10SM BKN038 OVC050 12/12 A2981 RMK AO2
Pressure 29.81 in
Visibility 10.0 miles
Clouds Mostly Cloudy 3800 ft
Overcast 5000 ft
Dew Point 54 °F
Humidity 89%
Rainfall 0.98 in
Snow Depth Not available.
6:56 AM 8:19 PM
Waning Crescent, 8% visible
METAR KDNN 240355Z AUTO 00000KT 10SM BKN038 OVC050 12/12 A2981 RMK AO2

Get Your Daily Forecast Email!

Thanks for signing up!

Be on the lookout for a verification email in your inbox.

You'll start receiving severe weather alerts in your inbox..

×

10-Day Weather Forecast

Almanac

Astronomy

Apr. 24, 2017 Rise Set
Actual Time
Civil Twilight
Nautical Twilight
Astronomical Twilight
Moon
Length of Visible Light
Length of Day
Tomorrow will be .
, % of the Moon is Illuminated

Today's Extremes

State Highs State Lows

Community

WunderPhotos

WunderBlog® & News

Nearby

Air Quality

  Air Quality AQ Index Pollutant
Not available.

Snow Depth

Station Depth Elevation

Earthquake Activity

City Distance Mag. Time & Date
Minimum magnitude displayed is 2.5.

Coastal Water Temperatures

Place Temperature

Stations

Nearby Weather Stations

Station Location Temp. Windchill Dew Point Humidity Wind Precip. Elev Updated Type
                   

Watches & Warnings

Flood Warning
Issued: 11:22 PM EDT Apr. 23, 2017 – National Weather Service

The National Weather Service in Peachtree City has issued a
* Flood Warning for
the coahulla creek near Keiths Mill near Dalton.
* From late tonight until Monday morning.
* At 11 PM Sunday the stage was 15.7 feet, and slowly rising.
* Minor flooding is forecast.
* Flood stage is 16 feet.
* The creek is forecast to rise above flood stage after midnight tonight and
continue to rise to near 16.1 feet by early Monday morning.The
creek will fall below flood stage Monday morning.
* At 16 feet... minor flooding begins. Pasture and fields
upstream... right and left bank from the Keiths Mill Road bridge...
and downstream on the left bank begin to flood.



Lat... Lon 3471 8489 3480 8495 3488 8495 3488 8486
      3480 8488 3474 8486